sensor_id;sensor_type;location;lat;lon;timestamp;P1;durP1;ratioP1;P2;durP2;ratioP2
18407;SDS011;9330;52.210;21.174;2023-07-30T00:00:33;3.03;;;2.45;;
18407;SDS011;9330;52.210;21.174;2023-07-30T00:03:00;2.75;;;2.55;;
18407;SDS011;9330;52.210;21.174;2023-07-30T00:05:27;3.35;;;2.47;;
18407;SDS011;9330;52.210;21.174;2023-07-30T00:07:54;3.00;;;2.50;;
18407;SDS011;9330;52.210;21.174;2023-07-30T00:10:21;3.58;;;2.35;;
18407;SDS011;9330;52.210;21.174;2023-07-30T00:12:50;5.40;;;2.80;;
18407;SDS011;9330;52.210;21.174;2023-07-30T00:15:17;3.67;;;2.28;;
18407;SDS011;9330;52.210;21.174;2023-07-30T00:17:44;2.70;;;2.33;;
18407;SDS011;9330;52.210;21.174;2023-07-30T00:20:11;4.85;;;3.05;;
18407;SDS011;9330;52.210;21.174;2023-07-30T00:22:38;3.25;;;2.95;;
18407;SDS011;9330;52.210;21.174;2023-07-30T00:25:05;3.58;;;3.10;;
18407;SDS011;9330;52.210;21.174;2023-07-30T00:27:33;4.07;;;3.00;;
18407;SDS011;9330;52.210;21.174;2023-07-30T00:30:02;4.00;;;2.95;;
18407;SDS011;9330;52.210;21.174;2023-07-30T00:32:29;2.72;;;2.50;;
18407;SDS011;9330;52.210;21.174;2023-07-30T00:34:56;4.10;;;3.05;;
18407;SDS011;9330;52.210;21.174;2023-07-30T00:37:22;4.00;;;2.75;;
18407;SDS011;9330;52.210;21.174;2023-07-30T00:39:49;4.78;;;2.90;;
18407;SDS011;9330;52.210;21.174;2023-07-30T00:42:16;3.45;;;2.90;;
18407;SDS011;9330;52.210;21.174;2023-07-30T00:44:43;3.33;;;2.60;;
18407;SDS011;9330;52.210;21.174;2023-07-30T00:47:12;5.60;;;2.67;;
18407;SDS011;9330;52.210;21.174;2023-07-30T00:49:39;3.03;;;2.55;;
18407;SDS011;9330;52.210;21.174;2023-07-30T00:52:06;4.28;;;2.60;;
18407;SDS011;9330;52.210;21.174;2023-07-30T00:54:34;3.13;;;2.28;;
18407;SDS011;9330;52.210;21.174;2023-07-30T00:57:01;4.25;;;2.45;;
18407;SDS011;9330;52.210;21.174;2023-07-30T00:59:28;3.67;;;2.63;;
18407;SDS011;9330;52.210;21.174;2023-07-30T01:01:55;2.97;;;2.45;;
18407;SDS011;9330;52.210;21.174;2023-07-30T01:04:27;4.43;;;3.22;;
18407;SDS011;9330;52.210;21.174;2023-07-30T01:06:53;3.42;;;2.83;;
18407;SDS011;9330;52.210;21.174;2023-07-30T01:09:21;3.15;;;2.80;;
18407;SDS011;9330;52.210;21.174;2023-07-30T01:11:48;2.40;;;2.20;;
18407;SDS011;9330;52.210;21.174;2023-07-30T01:14:15;3.30;;;2.20;;
18407;SDS011;9330;52.210;21.174;2023-07-30T01:16:44;3.40;;;2.30;;
18407;SDS011;9330;52.210;21.174;2023-07-30T01:19:11;3.13;;;2.50;;
18407;SDS011;9330;52.210;21.174;2023-07-30T01:21:40;3.28;;;2.60;;
18407;SDS011;9330;52.210;21.174;2023-07-30T01:24:06;2.80;;;2.55;;
18407;SDS011;9330;52.210;21.174;2023-07-30T01:26:34;4.00;;;2.60;;
18407;SDS011;9330;52.210;21.174;2023-07-30T01:29:06;2.95;;;2.28;;
18407;SDS011;9330;52.210;21.174;2023-07-30T01:31:37;4.38;;;2.10;;
18407;SDS011;9330;52.210;21.174;2023-07-30T01:34:07;5.45;;;2.20;;
18407;SDS011;9330;52.210;21.174;2023-07-30T01:36:37;3.90;;;2.83;;
18407;SDS011;9330;52.210;21.174;2023-07-30T01:39:07;3.55;;;2.60;;
18407;SDS011;9330;52.210;21.174;2023-07-30T01:41:35;4.15;;;2.88;;
18407;SDS011;9330;52.210;21.174;2023-07-30T01:44:03;3.65;;;2.75;;
18407;SDS011;9330;52.210;21.174;2023-07-30T01:46:30;2.40;;;2.20;;
18407;SDS011;9330;52.210;21.174;2023-07-30T01:48:57;2.70;;;2.50;;
18407;SDS011;9330;52.210;21.174;2023-07-30T01:51:24;2.30;;;2.10;;
18407;SDS011;9330;52.210;21.174;2023-07-30T01:53:52;2.90;;;2.58;;
18407;SDS011;9330;52.210;21.174;2023-07-30T01:56:19;3.38;;;2.50;;
18407;SDS011;9330;52.210;21.174;2023-07-30T01:58:46;3.28;;;2.40;;
18407;SDS011;9330;52.210;21.174;2023-07-30T02:01:13;3.70;;;2.47;;
18407;SDS011;9330;52.210;21.174;2023-07-30T02:03:41;3.15;;;2.28;;
18407;SDS011;9330;52.210;21.174;2023-07-30T02:06:08;4.95;;;2.60;;
18407;SDS011;9330;52.210;21.174;2023-07-30T02:08:36;3.17;;;2.50;;
18407;SDS011;9330;52.210;21.174;2023-07-30T02:11:04;2.17;;;1.98;;
18407;SDS011;9330;52.210;21.174;2023-07-30T02:13:31;2.55;;;2.30;;
18407;SDS011;9330;52.210;21.174;2023-07-30T02:15:58;2.60;;;2.40;;
18407;SDS011;9330;52.210;21.174;2023-07-30T02:18:25;3.33;;;2.40;;
18407;SDS011;9330;52.210;21.174;2023-07-30T02:20:52;3.38;;;2.35;;
18407;SDS011;9330;52.210;21.174;2023-07-30T02:23:20;2.83;;;2.20;;
18407;SDS011;9330;52.210;21.174;2023-07-30T02:25:47;2.22;;;2.03;;
18407;SDS011;9330;52.210;21.174;2023-07-30T02:28:15;3.78;;;2.22;;
18407;SDS011;9330;52.210;21.174;2023-07-30T02:30:42;3.70;;;2.47;;
18407;SDS011;9330;52.210;21.174;2023-07-30T02:33:09;3.05;;;2.40;;
18407;SDS011;9330;52.210;21.174;2023-07-30T02:35:36;2.63;;;2.30;;
18407;SDS011;9330;52.210;21.174;2023-07-30T02:38:03;5.18;;;2.15;;
18407;SDS011;9330;52.210;21.174;2023-07-30T02:40:30;2.40;;;2.20;;
18407;SDS011;9330;52.210;21.174;2023-07-30T02:42:58;4.28;;;2.53;;
18407;SDS011;9330;52.210;21.174;2023-07-30T02:45:26;2.50;;;2.30;;
18407;SDS011;9330;52.210;21.174;2023-07-30T02:47:54;2.92;;;2.53;;
18407;SDS011;9330;52.210;21.174;2023-07-30T02:50:21;2.50;;;2.22;;
18407;SDS011;9330;52.210;21.174;2023-07-30T02:52:48;5.38;;;2.47;;
18407;SDS011;9330;52.210;21.174;2023-07-30T02:55:15;2.72;;;2.30;;
18407;SDS011;9330;52.210;21.174;2023-07-30T02:57:42;3.38;;;2.40;;
18407;SDS011;9330;52.210;21.174;2023-07-30T03:00:09;3.65;;;2.60;;
18407;SDS011;9330;52.210;21.174;2023-07-30T03:02:39;2.85;;;2.50;;
18407;SDS011;9330;52.210;21.174;2023-07-30T03:05:06;2.63;;;2.42;;
18407;SDS011;9330;52.210;21.174;2023-07-30T03:07:34;3.60;;;2.50;;
18407;SDS011;9330;52.210;21.174;2023-07-30T03:10:02;3.80;;;2.70;;
18407;SDS011;9330;52.210;21.174;2023-07-30T03:12:29;3.75;;;3.30;;
18407;SDS011;9330;52.210;21.174;2023-07-30T03:14:56;4.57;;;3.55;;
18407;SDS011;9330;52.210;21.174;2023-07-30T03:17:23;3.30;;;2.95;;
18407;SDS011;9330;52.210;21.174;2023-07-30T03:19:52;6.47;;;4.90;;
18407;SDS011;9330;52.210;21.174;2023-07-30T03:22:19;5.43;;;3.55;;
18407;SDS011;9330;52.210;21.174;2023-07-30T03:24:46;3.88;;;3.47;;
18407;SDS011;9330;52.210;21.174;2023-07-30T03:27:13;5.60;;;3.67;;
18407;SDS011;9330;52.210;21.174;2023-07-30T03:29:40;4.80;;;3.88;;
18407;SDS011;9330;52.210;21.174;2023-07-30T03:32:07;3.55;;;3.25;;
18407;SDS011;9330;52.210;21.174;2023-07-30T03:34:35;4.57;;;4.10;;
18407;SDS011;9330;52.210;21.174;2023-07-30T03:37:03;4.53;;;4.13;;
18407;SDS011;9330;52.210;21.174;2023-07-30T03:39:30;4.70;;;3.78;;
18407;SDS011;9330;52.210;21.174;2023-07-30T03:41:57;4.38;;;4.00;;
18407;SDS011;9330;52.210;21.174;2023-07-30T03:44:24;5.22;;;3.70;;
18407;SDS011;9330;52.210;21.174;2023-07-30T03:46:51;4.75;;;3.90;;
18407;SDS011;9330;52.210;21.174;2023-07-30T03:49:18;4.38;;;3.70;;
18407;SDS011;9330;52.210;21.174;2023-07-30T03:51:47;3.72;;;3.40;;
18407;SDS011;9330;52.210;21.174;2023-07-30T03:54:15;5.22;;;4.50;;
18407;SDS011;9330;52.210;21.174;2023-07-30T03:56:42;5.57;;;4.03;;
18407;SDS011;9330;52.210;21.174;2023-07-30T03:59:09;4.53;;;3.88;;
18407;SDS011;9330;52.210;21.174;2023-07-30T04:01:36;5.07;;;3.88;;
18407;SDS011;9330;52.210;21.174;2023-07-30T04:04:04;4.20;;;3.80;;
18407;SDS011;9330;52.210;21.174;2023-07-30T04:06:31;4.10;;;3.80;;
18407;SDS011;9330;52.210;21.174;2023-07-30T04:08:57;4.53;;;3.70;;
18407;SDS011;9330;52.210;21.174;2023-07-30T04:11:26;4.63;;;3.83;;
18407;SDS011;9330;52.210;21.174;2023-07-30T04:13:53;4.43;;;4.00;;
18407;SDS011;9330;52.210;21.174;2023-07-30T04:16:20;4.53;;;4.13;;
18407;SDS011;9330;52.210;21.174;2023-07-30T04:18:47;4.22;;;3.83;;
18407;SDS011;9330;52.210;21.174;2023-07-30T04:21:14;4.10;;;3.78;;
18407;SDS011;9330;52.210;21.174;2023-07-30T04:23:41;5.07;;;3.75;;
18407;SDS011;9330;52.210;21.174;2023-07-30T04:26:08;5.63;;;4.82;;
18407;SDS011;9330;52.210;21.174;2023-07-30T04:28:36;6.80;;;4.40;;
18407;SDS011;9330;52.210;21.174;2023-07-30T04:31:03;4.00;;;3.70;;
18407;SDS011;9330;52.210;21.174;2023-07-30T04:33:30;4.47;;;3.95;;
18407;SDS011;9330;52.210;21.174;2023-07-30T04:35:57;5.32;;;4.13;;
18407;SDS011;9330;52.210;21.174;2023-07-30T04:38:24;5.15;;;3.70;;
18407;SDS011;9330;52.210;21.174;2023-07-30T04:40:50;6.70;;;3.90;;
18407;SDS011;9330;52.210;21.174;2023-07-30T04:43:17;4.03;;;3.63;;
18407;SDS011;9330;52.210;21.174;2023-07-30T04:45:45;4.70;;;3.22;;
18407;SDS011;9330;52.210;21.174;2023-07-30T04:48:12;4.07;;;3.78;;
18407;SDS011;9330;52.210;21.174;2023-07-30T04:50:39;5.32;;;3.38;;
18407;SDS011;9330;52.210;21.174;2023-07-30T04:53:07;5.55;;;3.67;;
18407;SDS011;9330;52.210;21.174;2023-07-30T04:55:34;3.50;;;3.20;;
18407;SDS011;9330;52.210;21.174;2023-07-30T04:58:00;3.20;;;3.00;;
18407;SDS011;9330;52.210;21.174;2023-07-30T05:00:28;4.20;;;3.03;;
18407;SDS011;9330;52.210;21.174;2023-07-30T05:02:56;3.78;;;2.95;;
18407;SDS011;9330;52.210;21.174;2023-07-30T05:05:23;4.97;;;2.60;;
18407;SDS011;9330;52.210;21.174;2023-07-30T05:07:50;3.17;;;2.88;;
18407;SDS011;9330;52.210;21.174;2023-07-30T05:10:17;2.47;;;2.25;;
18407;SDS011;9330;52.210;21.174;2023-07-30T05:12:44;2.92;;;2.17;;
18407;SDS011;9330;52.210;21.174;2023-07-30T05:15:11;3.15;;;2.85;;
18407;SDS011;9330;52.210;21.174;2023-07-30T05:17:37;3.72;;;2.40;;
18407;SDS011;9330;52.210;21.174;2023-07-30T05:20:06;2.65;;;2.33;;
18407;SDS011;9330;52.210;21.174;2023-07-30T05:22:34;3.35;;;2.60;;
18407;SDS011;9330;52.210;21.174;2023-07-30T05:25:01;4.65;;;2.78;;
18407;SDS011;9330;52.210;21.174;2023-07-30T05:27:28;4.47;;;2.90;;
18407;SDS011;9330;52.210;21.174;2023-07-30T05:29:56;2.65;;;2.38;;
18407;SDS011;9330;52.210;21.174;2023-07-30T05:32:23;3.22;;;2.45;;
18407;SDS011;9330;52.210;21.174;2023-07-30T05:34:51;3.22;;;2.70;;
18407;SDS011;9330;52.210;21.174;2023-07-30T05:37:19;5.35;;;3.10;;
18407;SDS011;9330;52.210;21.174;2023-07-30T05:39:46;3.10;;;2.83;;
18407;SDS011;9330;52.210;21.174;2023-07-30T05:42:13;3.50;;;3.20;;
18407;SDS011;9330;52.210;21.174;2023-07-30T05:44:40;4.50;;;4.10;;
18407;SDS011;9330;52.210;21.174;2023-07-30T05:47:06;4.22;;;3.92;;
18407;SDS011;9330;52.210;21.174;2023-07-30T05:49:33;4.10;;;3.80;;
18407;SDS011;9330;52.210;21.174;2023-07-30T05:52:00;4.53;;;4.18;;
18407;SDS011;9330;52.210;21.174;2023-07-30T05:54:28;4.75;;;3.83;;
18407;SDS011;9330;52.210;21.174;2023-07-30T05:56:55;4.35;;;3.95;;
18407;SDS011;9330;52.210;21.174;2023-07-30T05:59:22;4.00;;;3.63;;
18407;SDS011;9330;52.210;21.174;2023-07-30T06:01:49;3.83;;;3.40;;
18407;SDS011;9330;52.210;21.174;2023-07-30T06:04:15;3.90;;;3.60;;
18407;SDS011;9330;52.210;21.174;2023-07-30T06:06:42;3.50;;;3.20;;
18407;SDS011;9330;52.210;21.174;2023-07-30T06:09:09;4.05;;;3.40;;
18407;SDS011;9330;52.210;21.174;2023-07-30T06:11:38;4.60;;;4.18;;
18407;SDS011;9330;52.210;21.174;2023-07-30T06:14:05;4.55;;;4.15;;
18407;SDS011;9330;52.210;21.174;2023-07-30T06:16:32;5.70;;;4.25;;
18407;SDS011;9330;52.210;21.174;2023-07-30T06:18:59;4.38;;;3.97;;
18407;SDS011;9330;52.210;21.174;2023-07-30T06:21:25;4.63;;;4.30;;
18407;SDS011;9330;52.210;21.174;2023-07-30T06:23:52;4.70;;;4.30;;
18407;SDS011;9330;52.210;21.174;2023-07-30T06:26:19;4.60;;;4.20;;
18407;SDS011;9330;52.210;21.174;2023-07-30T06:28:47;4.28;;;3.97;;
18407;SDS011;9330;52.210;21.174;2023-07-30T06:31:14;4.78;;;4.28;;
18407;SDS011;9330;52.210;21.174;2023-07-30T06:33:41;4.72;;;4.20;;
18407;SDS011;9330;52.210;21.174;2023-07-30T06:36:07;5.22;;;4.50;;
18407;SDS011;9330;52.210;21.174;2023-07-30T06:38:34;4.38;;;3.75;;
18407;SDS011;9330;52.210;21.174;2023-07-30T06:41:01;5.45;;;3.95;;
18407;SDS011;9330;52.210;21.174;2023-07-30T06:43:28;3.97;;;3.63;;
18407;SDS011;9330;52.210;21.174;2023-07-30T06:45:56;4.35;;;3.75;;
18407;SDS011;9330;52.210;21.174;2023-07-30T06:48:23;3.90;;;3.50;;
18407;SDS011;9330;52.210;21.174;2023-07-30T06:50:50;4.00;;;3.15;;
18407;SDS011;9330;52.210;21.174;2023-07-30T06:53:16;3.60;;;3.30;;
18407;SDS011;9330;52.210;21.174;2023-07-30T06:55:43;3.63;;;3.33;;
18407;SDS011;9330;52.210;21.174;2023-07-30T06:58:10;3.47;;;3.17;;
18407;SDS011;9330;52.210;21.174;2023-07-30T07:00:37;3.78;;;3.47;;
18407;SDS011;9330;52.210;21.174;2023-07-30T07:03:05;3.30;;;3.00;;
18407;SDS011;9330;52.210;21.174;2023-07-30T07:05:32;4.38;;;3.05;;
18407;SDS011;9330;52.210;21.174;2023-07-30T07:07:59;3.58;;;2.72;;
18407;SDS011;9330;52.210;21.174;2023-07-30T07:10:26;3.17;;;2.88;;
18407;SDS011;9330;52.210;21.174;2023-07-30T07:12:53;3.28;;;2.83;;
18407;SDS011;9330;52.210;21.174;2023-07-30T07:15:19;3.17;;;2.83;;
18407;SDS011;9330;52.210;21.174;2023-07-30T07:17:46;3.20;;;2.95;;
18407;SDS011;9330;52.210;21.174;2023-07-30T07:20:14;3.60;;;3.30;;
18407;SDS011;9330;52.210;21.174;2023-07-30T07:22:41;3.95;;;2.63;;
18407;SDS011;9330;52.210;21.174;2023-07-30T07:25:08;3.42;;;3.03;;
18407;SDS011;9330;52.210;21.174;2023-07-30T07:27:35;3.33;;;2.90;;
18407;SDS011;9330;52.210;21.174;2023-07-30T07:30:02;4.15;;;3.65;;
18407;SDS011;9330;52.210;21.174;2023-07-30T07:32:29;4.05;;;3.75;;
18407;SDS011;9330;52.210;21.174;2023-07-30T07:35:02;5.13;;;4.18;;
18407;SDS011;9330;52.210;21.174;2023-07-30T07:37:31;3.45;;;3.22;;
18407;SDS011;9330;52.210;21.174;2023-07-30T07:39:58;5.63;;;3.53;;
18407;SDS011;9330;52.210;21.174;2023-07-30T07:42:25;5.97;;;3.30;;
18407;SDS011;9330;52.210;21.174;2023-07-30T07:44:52;3.40;;;3.10;;
18407;SDS011;9330;52.210;21.174;2023-07-30T07:47:19;5.63;;;4.05;;
18407;SDS011;9330;52.210;21.174;2023-07-30T07:49:46;5.43;;;3.45;;
18407;SDS011;9330;52.210;21.174;2023-07-30T07:52:13;3.78;;;3.38;;
18407;SDS011;9330;52.210;21.174;2023-07-30T07:54:42;4.28;;;3.83;;
18407;SDS011;9330;52.210;21.174;2023-07-30T07:57:09;4.72;;;4.10;;
18407;SDS011;9330;52.210;21.174;2023-07-30T07:59:35;4.22;;;3.92;;
18407;SDS011;9330;52.210;21.174;2023-07-30T08:02:02;4.13;;;3.72;;
18407;SDS011;9330;52.210;21.174;2023-07-30T08:04:30;4.03;;;3.63;;
18407;SDS011;9330;52.210;21.174;2023-07-30T08:06:56;3.47;;;3.17;;
18407;SDS011;9330;52.210;21.174;2023-07-30T08:09:25;3.78;;;3.00;;
18407;SDS011;9330;52.210;21.174;2023-07-30T08:11:53;3.10;;;2.80;;
18407;SDS011;9330;52.210;21.174;2023-07-30T08:14:20;5.03;;;3.30;;
18407;SDS011;9330;52.210;21.174;2023-07-30T08:16:47;3.00;;;2.80;;
18407;SDS011;9330;52.210;21.174;2023-07-30T08:19:13;5.43;;;3.97;;
18407;SDS011;9330;52.210;21.174;2023-07-30T08:21:40;4.30;;;3.30;;
18407;SDS011;9330;52.210;21.174;2023-07-30T08:24:07;4.57;;;3.47;;
18407;SDS011;9330;52.210;21.174;2023-07-30T08:26:34;6.38;;;2.85;;
18407;SDS011;9330;52.210;21.174;2023-07-30T08:29:02;3.80;;;2.60;;
18407;SDS011;9330;52.210;21.174;2023-07-30T08:31:31;3.53;;;3.10;;
18407;SDS011;9330;52.210;21.174;2023-07-30T08:33:57;5.50;;;2.70;;
18407;SDS011;9330;52.210;21.174;2023-07-30T08:36:24;3.38;;;2.90;;
18407;SDS011;9330;52.210;21.174;2023-07-30T08:38:51;4.97;;;2.97;;
18407;SDS011;9330;52.210;21.174;2023-07-30T08:41:18;4.40;;;2.97;;
18407;SDS011;9330;52.210;21.174;2023-07-30T08:43:45;4.20;;;2.88;;
18407;SDS011;9330;52.210;21.174;2023-07-30T08:46:15;3.65;;;2.72;;
18407;SDS011;9330;52.210;21.174;2023-07-30T08:48:42;5.60;;;2.97;;
18407;SDS011;9330;52.210;21.174;2023-07-30T08:51:09;5.93;;;2.90;;
18407;SDS011;9330;52.210;21.174;2023-07-30T08:53:39;3.97;;;3.00;;
18407;SDS011;9330;52.210;21.174;2023-07-30T08:56:07;7.38;;;3.00;;
18407;SDS011;9330;52.210;21.174;2023-07-30T08:58:35;4.07;;;2.60;;
18407;SDS011;9330;52.210;21.174;2023-07-30T09:01:04;2.95;;;2.65;;
18407;SDS011;9330;52.210;21.174;2023-07-30T09:03:36;2.95;;;2.50;;
18407;SDS011;9330;52.210;21.174;2023-07-30T09:06:05;3.95;;;2.80;;
18407;SDS011;9330;52.210;21.174;2023-07-30T09:08:31;3.13;;;2.55;;
18407;SDS011;9330;52.210;21.174;2023-07-30T09:11:05;3.10;;;2.53;;
18407;SDS011;9330;52.210;21.174;2023-07-30T09:13:36;2.35;;;2.15;;
18407;SDS011;9330;52.210;21.174;2023-07-30T09:16:07;2.92;;;2.63;;
18407;SDS011;9330;52.210;21.174;2023-07-30T09:18:39;2.78;;;2.58;;
18407;SDS011;9330;52.210;21.174;2023-07-30T09:21:06;3.00;;;2.70;;
18407;SDS011;9330;52.210;21.174;2023-07-30T09:23:38;2.80;;;2.50;;
18407;SDS011;9330;52.210;21.174;2023-07-30T09:26:06;3.40;;;2.20;;
18407;SDS011;9330;52.210;21.174;2023-07-30T09:28:33;2.65;;;2.42;;
18407;SDS011;9330;52.210;21.174;2023-07-30T09:31:00;4.07;;;2.33;;
18407;SDS011;9330;52.210;21.174;2023-07-30T09:33:27;5.32;;;2.25;;
18407;SDS011;9330;52.210;21.174;2023-07-30T09:35:56;4.78;;;2.95;;
18407;SDS011;9330;52.210;21.174;2023-07-30T09:38:23;2.90;;;2.60;;
18407;SDS011;9330;52.210;21.174;2023-07-30T09:40:50;2.50;;;2.30;;
18407;SDS011;9330;52.210;21.174;2023-07-30T09:43:18;2.33;;;2.17;;
18407;SDS011;9330;52.210;21.174;2023-07-30T09:45:45;4.43;;;2.72;;
18407;SDS011;9330;52.210;21.174;2023-07-30T09:48:12;2.65;;;2.45;;
18407;SDS011;9330;52.210;21.174;2023-07-30T09:50:41;2.70;;;2.33;;
18407;SDS011;9330;52.210;21.174;2023-07-30T09:53:10;2.17;;;1.98;;
18407;SDS011;9330;52.210;21.174;2023-07-30T09:55:39;2.60;;;1.90;;
18407;SDS011;9330;52.210;21.174;2023-07-30T09:58:06;2.28;;;2.08;;
18407;SDS011;9330;52.210;21.174;2023-07-30T10:00:36;2.40;;;2.20;;
18407;SDS011;9330;52.210;21.174;2023-07-30T10:03:03;2.50;;;2.30;;
18407;SDS011;9330;52.210;21.174;2023-07-30T10:05:32;2.20;;;2.00;;
18407;SDS011;9330;52.210;21.174;2023-07-30T10:08:02;2.85;;;1.90;;
18407;SDS011;9330;52.210;21.174;2023-07-30T10:10:34;3.13;;;1.98;;
18407;SDS011;9330;52.210;21.174;2023-07-30T10:13:02;2.47;;;1.90;;
18407;SDS011;9330;52.210;21.174;2023-07-30T10:15:33;2.83;;;2.10;;
18407;SDS011;9330;52.210;21.174;2023-07-30T10:18:00;2.35;;;2.10;;
18407;SDS011;9330;52.210;21.174;2023-07-30T10:20:27;2.40;;;2.20;;
18407;SDS011;9330;52.210;21.174;2023-07-30T10:22:55;5.22;;;2.42;;
18407;SDS011;9330;52.210;21.174;2023-07-30T10:25:26;2.03;;;1.92;;
18407;SDS011;9330;52.210;21.174;2023-07-30T10:27:56;2.50;;;2.30;;
18407;SDS011;9330;52.210;21.174;2023-07-30T10:30:29;2.35;;;2.15;;
18407;SDS011;9330;52.210;21.174;2023-07-30T10:32:59;2.67;;;2.47;;
18407;SDS011;9330;52.210;21.174;2023-07-30T10:35:36;4.35;;;2.63;;
18407;SDS011;9330;52.210;21.174;2023-07-30T10:38:14;2.85;;;2.40;;
18407;SDS011;9330;52.210;21.174;2023-07-30T10:40:42;2.42;;;2.22;;
18407;SDS011;9330;52.210;21.174;2023-07-30T10:43:28;2.13;;;1.98;;
18407;SDS011;9330;52.210;21.174;2023-07-30T10:45:56;2.83;;;2.30;;
18407;SDS011;9330;52.210;21.174;2023-07-30T10:48:29;2.55;;;2.35;;
18407;SDS011;9330;52.210;21.174;2023-07-30T10:51:00;2.42;;;2.22;;
18407;SDS011;9330;52.210;21.174;2023-07-30T10:53:28;4.80;;;2.47;;
18407;SDS011;9330;52.210;21.174;2023-07-30T10:55:57;2.88;;;2.58;;
18407;SDS011;9330;52.210;21.174;2023-07-30T10:58:29;2.40;;;2.20;;
18407;SDS011;9330;52.210;21.174;2023-07-30T11:00:57;2.20;;;2.03;;
18407;SDS011;9330;52.210;21.174;2023-07-30T11:03:24;2.65;;;2.40;;
18407;SDS011;9330;52.210;21.174;2023-07-30T11:05:53;2.58;;;2.38;;
18407;SDS011;9330;52.210;21.174;2023-07-30T11:08:21;2.50;;;2.30;;
18407;SDS011;9330;52.210;21.174;2023-07-30T11:10:58;2.50;;;2.28;;
18407;SDS011;9330;52.210;21.174;2023-07-30T11:13:25;2.83;;;2.58;;
18407;SDS011;9330;52.210;21.174;2023-07-30T11:15:54;2.38;;;2.17;;
18407;SDS011;9330;52.210;21.174;2023-07-30T11:18:21;2.92;;;2.70;;
18407;SDS011;9330;52.210;21.174;2023-07-30T11:20:48;3.03;;;2.63;;
18407;SDS011;9330;52.210;21.174;2023-07-30T11:23:17;2.50;;;2.30;;
18407;SDS011;9330;52.210;21.174;2023-07-30T11:25:45;2.47;;;2.28;;
18407;SDS011;9330;52.210;21.174;2023-07-30T11:28:14;2.42;;;2.22;;
18407;SDS011;9330;52.210;21.174;2023-07-30T11:30:41;2.50;;;2.30;;
18407;SDS011;9330;52.210;21.174;2023-07-30T11:33:15;2.40;;;2.20;;
18407;SDS011;9330;52.210;21.174;2023-07-30T11:35:43;2.42;;;2.22;;
18407;SDS011;9330;52.210;21.174;2023-07-30T11:38:10;2.65;;;2.40;;
18407;SDS011;9330;52.210;21.174;2023-07-30T11:40:38;2.45;;;2.25;;
18407;SDS011;9330;52.210;21.174;2023-07-30T11:43:05;3.38;;;2.45;;
18407;SDS011;9330;52.210;21.174;2023-07-30T11:45:32;2.90;;;2.60;;
18407;SDS011;9330;52.210;21.174;2023-07-30T11:48:05;2.83;;;2.50;;
18407;SDS011;9330;52.210;21.174;2023-07-30T11:50:43;3.83;;;2.40;;
18407;SDS011;9330;52.210;21.174;2023-07-30T11:53:15;2.70;;;2.50;;
18407;SDS011;9330;52.210;21.174;2023-07-30T11:55:42;3.28;;;2.45;;
18407;SDS011;9330;52.210;21.174;2023-07-30T11:58:11;2.67;;;2.47;;
18407;SDS011;9330;52.210;21.174;2023-07-30T12:00:39;2.90;;;2.70;;
18407;SDS011;9330;52.210;21.174;2023-07-30T12:03:11;2.90;;;2.70;;
18407;SDS011;9330;52.210;21.174;2023-07-30T12:08:33;2.90;;;2.70;;
18407;SDS011;9330;52.210;21.174;2023-07-30T12:11:02;2.72;;;2.53;;
18407;SDS011;9330;52.210;21.174;2023-07-30T12:13:30;2.80;;;2.50;;
18407;SDS011;9330;52.210;21.174;2023-07-30T12:15:57;3.08;;;2.60;;
18407;SDS011;9330;52.210;21.174;2023-07-30T12:18:25;2.35;;;2.15;;
18407;SDS011;9330;52.210;21.174;2023-07-30T12:20:54;2.55;;;2.30;;
18407;SDS011;9330;52.210;21.174;2023-07-30T12:23:22;2.58;;;2.33;;
18407;SDS011;9330;52.210;21.174;2023-07-30T12:25:50;2.67;;;2.40;;
18407;SDS011;9330;52.210;21.174;2023-07-30T12:28:17;3.00;;;2.50;;
18407;SDS011;9330;52.210;21.174;2023-07-30T12:30:44;2.88;;;2.58;;
18407;SDS011;9330;52.210;21.174;2023-07-30T12:33:10;2.63;;;2.42;;
18407;SDS011;9330;52.210;21.174;2023-07-30T12:35:37;2.75;;;2.55;;
18407;SDS011;9330;52.210;21.174;2023-07-30T12:38:04;3.17;;;2.88;;
18407;SDS011;9330;52.210;21.174;2023-07-30T12:40:32;3.13;;;2.85;;
18407;SDS011;9330;52.210;21.174;2023-07-30T12:43:00;2.97;;;2.78;;
18407;SDS011;9330;52.210;21.174;2023-07-30T12:45:28;2.90;;;2.60;;
18407;SDS011;9330;52.210;21.174;2023-07-30T12:47:54;3.50;;;2.83;;
18407;SDS011;9330;52.210;21.174;2023-07-30T12:50:21;2.75;;;2.55;;
18407;SDS011;9330;52.210;21.174;2023-07-30T12:52:48;3.25;;;2.75;;
18407;SDS011;9330;52.210;21.174;2023-07-30T12:55:15;2.25;;;2.05;;
18407;SDS011;9330;52.210;21.174;2023-07-30T12:57:43;2.70;;;2.50;;
18407;SDS011;9330;52.210;21.174;2023-07-30T13:00:11;2.92;;;2.72;;
18407;SDS011;9330;52.210;21.174;2023-07-30T13:02:38;3.10;;;2.80;;
18407;SDS011;9330;52.210;21.174;2023-07-30T13:05:05;3.38;;;2.60;;
18407;SDS011;9330;52.210;21.174;2023-07-30T13:07:32;3.80;;;2.58;;
18407;SDS011;9330;52.210;21.174;2023-07-30T13:10:03;2.60;;;2.40;;
18407;SDS011;9330;52.210;21.174;2023-07-30T13:12:30;3.05;;;2.38;;
18407;SDS011;9330;52.210;21.174;2023-07-30T13:14:59;2.83;;;2.60;;
18407;SDS011;9330;52.210;21.174;2023-07-30T13:17:26;2.50;;;2.30;;
18407;SDS011;9330;52.210;21.174;2023-07-30T13:19:53;2.47;;;2.28;;
18407;SDS011;9330;52.210;21.174;2023-07-30T13:22:20;2.78;;;2.58;;
18407;SDS011;9330;52.210;21.174;2023-07-30T13:24:47;2.80;;;2.55;;
18407;SDS011;9330;52.210;21.174;2023-07-30T13:27:14;2.58;;;2.38;;
18407;SDS011;9330;52.210;21.174;2023-07-30T13:29:41;2.50;;;2.13;;
18407;SDS011;9330;52.210;21.174;2023-07-30T13:32:09;4.38;;;2.30;;
18407;SDS011;9330;52.210;21.174;2023-07-30T13:34:36;2.38;;;2.17;;
18407;SDS011;9330;52.210;21.174;2023-07-30T13:37:03;3.35;;;2.42;;
18407;SDS011;9330;52.210;21.174;2023-07-30T13:39:30;2.80;;;2.60;;
18407;SDS011;9330;52.210;21.174;2023-07-30T13:41:57;2.70;;;2.50;;
18407;SDS011;9330;52.210;21.174;2023-07-30T13:44:24;2.58;;;2.30;;
18407;SDS011;9330;52.210;21.174;2023-07-30T13:46:51;2.53;;;2.10;;
18407;SDS011;9330;52.210;21.174;2023-07-30T13:49:20;2.35;;;2.15;;
18407;SDS011;9330;52.210;21.174;2023-07-30T13:51:46;2.53;;;2.33;;
18407;SDS011;9330;52.210;21.174;2023-07-30T13:54:13;3.17;;;2.10;;
18407;SDS011;9330;52.210;21.174;2023-07-30T13:56:40;2.28;;;2.08;;
18407;SDS011;9330;52.210;21.174;2023-07-30T13:59:07;2.63;;;2.28;;
18407;SDS011;9330;52.210;21.174;2023-07-30T14:01:34;2.67;;;2.25;;
18407;SDS011;9330;52.210;21.174;2023-07-30T14:04:01;2.60;;;2.40;;
18407;SDS011;9330;52.210;21.174;2023-07-30T14:06:29;2.42;;;2.22;;
18407;SDS011;9330;52.210;21.174;2023-07-30T14:08:56;2.80;;;2.50;;
18407;SDS011;9330;52.210;21.174;2023-07-30T14:11:24;2.10;;;1.90;;
18407;SDS011;9330;52.210;21.174;2023-07-30T14:13:51;2.60;;;2.40;;
18407;SDS011;9330;52.210;21.174;2023-07-30T14:16:19;2.80;;;2.60;;
18407;SDS011;9330;52.210;21.174;2023-07-30T14:18:46;4.72;;;2.65;;
18407;SDS011;9330;52.210;21.174;2023-07-30T14:21:13;2.60;;;2.40;;
18407;SDS011;9330;52.210;21.174;2023-07-30T14:23:41;2.60;;;2.40;;
18407;SDS011;9330;52.210;21.174;2023-07-30T14:26:09;2.30;;;2.10;;
18407;SDS011;9330;52.210;21.174;2023-07-30T14:28:36;3.50;;;2.25;;
18407;SDS011;9330;52.210;21.174;2023-07-30T14:31:03;2.58;;;2.38;;
18407;SDS011;9330;52.210;21.174;2023-07-30T14:33:30;2.60;;;2.40;;
18407;SDS011;9330;52.210;21.174;2023-07-30T14:35:56;2.60;;;2.28;;
18407;SDS011;9330;52.210;21.174;2023-07-30T14:38:24;3.47;;;2.10;;
18407;SDS011;9330;52.210;21.174;2023-07-30T14:40:52;2.58;;;2.38;;
18407;SDS011;9330;52.210;21.174;2023-07-30T14:43:20;2.78;;;2.47;;
18407;SDS011;9330;52.210;21.174;2023-07-30T14:45:48;3.20;;;2.50;;
18407;SDS011;9330;52.210;21.174;2023-07-30T14:48:15;3.65;;;2.42;;
18407;SDS011;9330;52.210;21.174;2023-07-30T14:50:42;2.95;;;2.58;;
18407;SDS011;9330;52.210;21.174;2023-07-30T14:53:10;4.20;;;2.60;;